sensor_id;sensor_type;location;lat;lon;timestamp;P1;P2;P0
12246;PMS7003;6186;52.022;4.692;2022-11-15T00:00:44;23.80;21.00;10.00
12246;PMS7003;6186;52.022;4.692;2022-11-15T00:03:09;21.25;20.00;12.00
12246;PMS7003;6186;52.022;4.692;2022-11-15T00:05:37;26.25;22.25;11.50
12246;PMS7003;6186;52.022;4.692;2022-11-15T00:08:03;29.67;25.67;13.00
12246;PMS7003;6186;52.022;4.692;2022-11-15T00:10:28;22.00;17.67;11.67
12246;PMS7003;6186;52.022;4.692;2022-11-15T00:12:53;33.67;25.67;14.33
12246;PMS7003;6186;52.022;4.692;2022-11-15T00:15:18;21.67;19.33;11.00
12246;PMS7003;6186;52.022;4.692;2022-11-15T00:17:44;29.67;25.00;13.00
12246;PMS7003;6186;52.022;4.692;2022-11-15T00:20:09;26.33;23.00;12.00
12246;PMS7003;6186;52.022;4.692;2022-11-15T00:22:36;21.00;20.75;10.50
12246;PMS7003;6186;52.022;4.692;2022-11-15T00:25:01;20.33;20.00;11.33
12246;PMS7003;6186;52.022;4.692;2022-11-15T00:27:28;25.00;21.00;11.25
12246;PMS7003;6186;52.022;4.692;2022-11-15T00:29:53;30.00;26.00;14.33
12246;PMS7003;6186;52.022;4.692;2022-11-15T00:32:19;28.33;25.00;13.00
12246;PMS7003;6186;52.022;4.692;2022-11-15T00:34:44;29.67;23.67;14.33
12246;PMS7003;6186;52.022;4.692;2022-11-15T00:37:09;24.25;22.00;12.00
12246;PMS7003;6186;52.022;4.692;2022-11-15T00:39:34;30.00;26.00;13.67
12246;PMS7003;6186;52.022;4.692;2022-11-15T00:42:00;31.00;27.00;15.00
12246;PMS7003;6186;52.022;4.692;2022-11-15T00:44:25;23.00;21.00;11.33
12246;PMS7003;6186;52.022;4.692;2022-11-15T00:46:50;22.33;21.33;12.00
12246;PMS7003;6186;52.022;4.692;2022-11-15T00:49:16;25.67;22.33;13.00
12246;PMS7003;6186;52.022;4.692;2022-11-15T00:51:41;22.67;20.67;10.67
12246;PMS7003;6186;52.022;4.692;2022-11-15T00:54:06;19.75;17.00;10.50
12246;PMS7003;6186;52.022;4.692;2022-11-15T00:56:31;24.25;17.75;9.25
12246;PMS7003;6186;52.022;4.692;2022-11-15T00:58:57;27.00;23.33;12.00
12246;PMS7003;6186;52.022;4.692;2022-11-15T01:01:22;34.67;26.00;13.00
12246;PMS7003;6186;52.022;4.692;2022-11-15T01:03:48;29.00;22.50;11.75
12246;PMS7003;6186;52.022;4.692;2022-11-15T01:06:13;31.00;25.67;12.00
12246;PMS7003;6186;52.022;4.692;2022-11-15T01:08:39;27.00;24.33;12.33
12246;PMS7003;6186;52.022;4.692;2022-11-15T01:11:06;31.00;26.00;13.00
12246;PMS7003;6186;52.022;4.692;2022-11-15T01:13:34;33.75;26.00;13.50
12246;PMS7003;6186;52.022;4.692;2022-11-15T01:16:34;25.25;23.25;11.50
12246;PMS7003;6186;52.022;4.692;2022-11-15T01:18:52;24.00;23.00;13.50
12246;PMS7003;6186;52.022;4.692;2022-11-15T01:21:18;27.33;22.33;10.67
12246;PMS7003;6186;52.022;4.692;2022-11-15T01:23:44;21.75;19.25;11.00
12246;PMS7003;6186;52.022;4.692;2022-11-15T01:26:11;22.00;19.33;11.00
12246;PMS7003;6186;52.022;4.692;2022-11-15T01:28:41;24.00;20.75;11.00
12246;PMS7003;6186;52.022;4.692;2022-11-15T01:31:09;29.25;25.50;13.50
12246;PMS7003;6186;52.022;4.692;2022-11-15T01:33:37;32.75;27.25;15.00
12246;PMS7003;6186;52.022;4.692;2022-11-15T01:36:04;38.00;30.67;15.67
12246;PMS7003;6186;52.022;4.692;2022-11-15T01:38:34;35.25;27.50;15.00
12246;PMS7003;6186;52.022;4.692;2022-11-15T01:41:00;29.33;23.00;13.00
12246;PMS7003;6186;52.022;4.692;2022-11-15T01:43:27;27.33;23.00;13.00
12246;PMS7003;6186;52.022;4.692;2022-11-15T01:48:38;26.00;22.50;13.00
12246;PMS7003;6186;52.022;4.692;2022-11-15T01:51:04;30.33;25.00;12.00
12246;PMS7003;6186;52.022;4.692;2022-11-15T01:53:34;23.50;20.50;11.50
12246;PMS7003;6186;52.022;4.692;2022-11-15T01:56:04;26.20;22.40;10.40
12246;PMS7003;6186;52.022;4.692;2022-11-15T01:58:32;29.50;26.50;13.50
12246;PMS7003;6186;52.022;4.692;2022-11-15T02:00:59;28.50;26.25;12.50
12246;PMS7003;6186;52.022;4.692;2022-11-15T02:03:26;32.67;26.33;12.67
12246;PMS7003;6186;52.022;4.692;2022-11-15T02:05:58;29.00;22.50;12.00
12246;PMS7003;6186;52.022;4.692;2022-11-15T02:08:24;27.00;23.25;13.00
12246;PMS7003;6186;52.022;4.692;2022-11-15T02:10:49;24.75;22.75;12.00
12246;PMS7003;6186;52.022;4.692;2022-11-15T02:13:15;23.50;20.25;11.25
12246;PMS7003;6186;52.022;4.692;2022-11-15T02:15:48;28.40;20.60;11.00
12246;PMS7003;6186;52.022;4.692;2022-11-15T02:32:39;27.00;22.50;13.00
12246;PMS7003;6186;52.022;4.692;2022-11-15T02:40:53;27.00;22.50;12.75
12246;PMS7003;6186;52.022;4.692;2022-11-15T02:43:40;26.40;24.20;12.60
12246;PMS7003;6186;52.022;4.692;2022-11-15T02:46:37;25.50;23.25;12.75
12246;PMS7003;6186;52.022;4.692;2022-11-15T02:49:35;24.80;20.20;10.40
12246;PMS7003;6186;52.022;4.692;2022-11-15T02:52:02;20.60;20.00;10.20
12246;PMS7003;6186;52.022;4.692;2022-11-15T02:54:29;28.25;23.25;12.50
12246;PMS7003;6186;52.022;4.692;2022-11-15T02:57:07;25.40;21.20;10.60
12246;PMS7003;6186;52.022;4.692;2022-11-15T03:10:45;24.40;22.00;12.00
12246;PMS7003;6186;52.022;4.692;2022-11-15T03:13:28;23.80;21.60;13.00
12246;PMS7003;6186;52.022;4.692;2022-11-15T03:18:53;23.20;18.80;11.00
12246;PMS7003;6186;52.022;4.692;2022-11-15T03:21:24;25.00;19.40;12.00
12246;PMS7003;6186;52.022;4.692;2022-11-15T03:23:55;25.60;22.00;10.60
12246;PMS7003;6186;52.022;4.692;2022-11-15T03:26:26;19.60;18.00;9.20
12246;PMS7003;6186;52.022;4.692;2022-11-15T03:29:01;15.80;14.60;8.00
12246;PMS7003;6186;52.022;4.692;2022-11-15T03:31:32;21.40;20.00;11.40
12246;PMS7003;6186;52.022;4.692;2022-11-15T03:34:19;20.20;18.00;9.40
12246;PMS7003;6186;52.022;4.692;2022-11-15T03:36:47;19.20;18.00;10.00
12246;PMS7003;6186;52.022;4.692;2022-11-15T03:39:14;20.40;17.20;9.60
12246;PMS7003;6186;52.022;4.692;2022-11-15T03:44:31;20.20;17.20;9.60
12246;PMS7003;6186;52.022;4.692;2022-11-15T03:49:32;20.80;17.20;8.00
12246;PMS7003;6186;52.022;4.692;2022-11-15T03:51:59;20.80;18.40;8.80
12246;PMS7003;6186;52.022;4.692;2022-11-15T03:54:25;16.20;14.80;8.80
12246;PMS7003;6186;52.022;4.692;2022-11-15T03:56:51;18.25;16.25;9.00
12246;PMS7003;6186;52.022;4.692;2022-11-15T03:59:16;18.25;18.00;10.25
12246;PMS7003;6186;52.022;4.692;2022-11-15T04:01:41;16.00;14.75;8.00
12246;PMS7003;6186;52.022;4.692;2022-11-15T04:04:06;15.50;15.00;8.00
12246;PMS7003;6186;52.022;4.692;2022-11-15T04:06:32;15.50;14.25;9.00
12246;PMS7003;6186;52.022;4.692;2022-11-15T04:08:57;18.00;15.00;8.00
12246;PMS7003;6186;52.022;4.692;2022-11-15T04:11:23;15.50;13.75;7.50
12246;PMS7003;6186;52.022;4.692;2022-11-15T04:13:48;17.25;14.00;8.00
12246;PMS7003;6186;52.022;4.692;2022-11-15T04:16:13;11.75;11.75;5.75
12246;PMS7003;6186;52.022;4.692;2022-11-15T04:18:38;17.75;15.00;8.00
12246;PMS7003;6186;52.022;4.692;2022-11-15T04:21:04;15.00;13.00;7.00
12246;PMS7003;6186;52.022;4.692;2022-11-15T04:23:48;14.60;13.20;7.00
12246;PMS7003;6186;52.022;4.692;2022-11-15T04:26:31;15.60;13.80;8.00
12246;PMS7003;6186;52.022;4.692;2022-11-15T04:28:57;14.00;12.25;7.75
12246;PMS7003;6186;52.022;4.692;2022-11-15T04:31:41;11.80;11.80;7.00
12246;PMS7003;6186;52.022;4.692;2022-11-15T04:34:06;14.00;12.00;7.00
12246;PMS7003;6186;52.022;4.692;2022-11-15T04:36:32;14.75;13.75;7.00
12246;PMS7003;6186;52.022;4.692;2022-11-15T04:39:15;14.00;13.00;7.00
12246;PMS7003;6186;52.022;4.692;2022-11-15T04:41:41;12.75;10.75;7.00
12246;PMS7003;6186;52.022;4.692;2022-11-15T04:44:06;13.00;11.25;7.00
12246;PMS7003;6186;52.022;4.692;2022-11-15T04:46:32;12.20;10.40;7.00
12246;PMS7003;6186;52.022;4.692;2022-11-15T04:48:58;14.25;13.00;7.00
12246;PMS7003;6186;52.022;4.692;2022-11-15T04:51:23;15.00;11.50;7.00
12246;PMS7003;6186;52.022;4.692;2022-11-15T04:53:48;13.50;11.00;4.75
12246;PMS7003;6186;52.022;4.692;2022-11-15T04:56:14;11.75;11.50;7.00
12246;PMS7003;6186;52.022;4.692;2022-11-15T04:58:39;16.00;13.25;8.00
12246;PMS7003;6186;52.022;4.692;2022-11-15T05:01:08;17.00;14.50;8.00
12246;PMS7003;6186;52.022;4.692;2022-11-15T05:03:34;14.00;12.20;7.00
12246;PMS7003;6186;52.022;4.692;2022-11-15T05:06:18;16.00;13.40;7.20
12246;PMS7003;6186;52.022;4.692;2022-11-15T05:08:43;13.50;13.00;8.00
12246;PMS7003;6186;52.022;4.692;2022-11-15T05:11:08;15.50;13.00;8.00
12246;PMS7003;6186;52.022;4.692;2022-11-15T05:13:33;14.25;11.25;7.00
12246;PMS7003;6186;52.022;4.692;2022-11-15T05:15:59;15.00;11.50;7.00
12246;PMS7003;6186;52.022;4.692;2022-11-15T05:18:24;14.75;12.00;5.25
12246;PMS7003;6186;52.022;4.692;2022-11-15T05:20:49;13.75;12.75;5.75
12246;PMS7003;6186;52.022;4.692;2022-11-15T05:23:15;13.75;11.75;5.75
12246;PMS7003;6186;52.022;4.692;2022-11-15T05:25:40;11.50;11.25;7.00
12246;PMS7003;6186;52.022;4.692;2022-11-15T05:28:05;12.75;11.75;7.00
12246;PMS7003;6186;52.022;4.692;2022-11-15T05:30:31;16.00;13.25;6.50
12246;PMS7003;6186;52.022;4.692;2022-11-15T05:32:56;11.00;10.75;5.75
12246;PMS7003;6186;52.022;4.692;2022-11-15T05:35:25;13.00;10.25;5.00
12246;PMS7003;6186;52.022;4.692;2022-11-15T05:38:03;10.80;10.00;5.20
12246;PMS7003;6186;52.022;4.692;2022-11-15T05:40:28;10.75;9.75;4.25
12246;PMS7003;6186;52.022;4.692;2022-11-15T05:42:56;12.60;11.20;5.80
12246;PMS7003;6186;52.022;4.692;2022-11-15T05:45:22;11.00;11.00;5.40
12246;PMS7003;6186;52.022;4.692;2022-11-15T05:47:48;9.25;8.00;4.25
12246;PMS7003;6186;52.022;4.692;2022-11-15T05:50:15;8.60;7.60;4.00
12246;PMS7003;6186;52.022;4.692;2022-11-15T05:52:43;13.00;10.80;5.00
12246;PMS7003;6186;52.022;4.692;2022-11-15T05:55:10;11.20;8.40;4.00
12246;PMS7003;6186;52.022;4.692;2022-11-15T05:57:36;10.00;9.50;4.25
12246;PMS7003;6186;52.022;4.692;2022-11-15T06:00:02;8.50;8.50;3.25
12246;PMS7003;6186;52.022;4.692;2022-11-15T06:02:29;9.00;9.00;5.20
12246;PMS7003;6186;52.022;4.692;2022-11-15T06:04:54;10.75;9.75;5.00
12246;PMS7003;6186;52.022;4.692;2022-11-15T06:07:19;8.00;8.00;3.25
12246;PMS7003;6186;52.022;4.692;2022-11-15T06:09:45;7.50;7.50;4.00
12246;PMS7003;6186;52.022;4.692;2022-11-15T06:12:10;9.75;8.75;4.00
12246;PMS7003;6186;52.022;4.692;2022-11-15T06:14:35;8.00;8.00;4.00
12246;PMS7003;6186;52.022;4.692;2022-11-15T06:17:01;6.50;6.00;3.00
12246;PMS7003;6186;52.022;4.692;2022-11-15T06:19:27;9.20;8.60;4.20
12246;PMS7003;6186;52.022;4.692;2022-11-15T06:21:57;7.60;6.20;3.40
12246;PMS7003;6186;52.022;4.692;2022-11-15T06:24:23;9.75;6.00;3.00
12246;PMS7003;6186;52.022;4.692;2022-11-15T06:26:48;9.00;7.50;3.00
12246;PMS7003;6186;52.022;4.692;2022-11-15T06:29:13;9.50;9.00;4.00
12246;PMS7003;6186;52.022;4.692;2022-11-15T06:31:39;9.00;8.50;4.00
12246;PMS7003;6186;52.022;4.692;2022-11-15T06:34:04;9.00;8.00;4.00
12246;PMS7003;6186;52.022;4.692;2022-11-15T06:36:29;7.50;7.00;3.00
12246;PMS7003;6186;52.022;4.692;2022-11-15T06:38:55;8.50;7.50;3.00
12246;PMS7003;6186;52.022;4.692;2022-11-15T06:41:21;7.00;7.00;3.00
12246;PMS7003;6186;52.022;4.692;2022-11-15T06:43:47;9.00;8.50;4.00
12246;PMS7003;6186;52.022;4.692;2022-11-15T06:46:12;8.00;7.00;3.00
12246;PMS7003;6186;52.022;4.692;2022-11-15T06:48:37;7.25;7.00;3.00
12246;PMS7003;6186;52.022;4.692;2022-11-15T06:51:03;7.00;5.75;2.00
12246;PMS7003;6186;52.022;4.692;2022-11-15T06:53:29;8.60;7.00;3.00
12246;PMS7003;6186;52.022;4.692;2022-11-15T06:56:02;7.20;7.00;2.20
12246;PMS7003;6186;52.022;4.692;2022-11-15T06:58:29;7.00;6.80;2.80
12246;PMS7003;6186;52.022;4.692;2022-11-15T07:00:59;7.80;7.00;3.00
12246;PMS7003;6186;52.022;4.692;2022-11-15T07:03:26;7.80;7.80;3.00
12246;PMS7003;6186;52.022;4.692;2022-11-15T07:05:55;10.25;6.25;3.00
12246;PMS7003;6186;52.022;4.692;2022-11-15T07:08:21;7.60;7.00;3.00
12246;PMS7003;6186;52.022;4.692;2022-11-15T07:10:48;5.80;5.40;2.00
12246;PMS7003;6186;52.022;4.692;2022-11-15T07:13:13;7.00;5.75;2.75
12246;PMS7003;6186;52.022;4.692;2022-11-15T07:15:39;5.25;5.00;3.00
12246;PMS7003;6186;52.022;4.692;2022-11-15T07:18:04;7.75;6.25;2.00
12246;PMS7003;6186;52.022;4.692;2022-11-15T07:20:29;5.00;4.00;2.00
12246;PMS7003;6186;52.022;4.692;2022-11-15T07:23:02;7.75;7.75;3.00
12246;PMS7003;6186;52.022;4.692;2022-11-15T07:25:28;5.80;5.80;3.00
12246;PMS7003;6186;52.022;4.692;2022-11-15T07:27:54;6.50;6.25;3.00
12246;PMS7003;6186;52.022;4.692;2022-11-15T07:30:20;5.60;5.60;2.80
12246;PMS7003;6186;52.022;4.692;2022-11-15T07:32:46;6.25;5.25;2.00
12246;PMS7003;6186;52.022;4.692;2022-11-15T07:35:11;5.00;5.00;2.00
12246;PMS7003;6186;52.022;4.692;2022-11-15T07:37:36;5.25;4.00;2.00
12246;PMS7003;6186;52.022;4.692;2022-11-15T07:40:02;4.00;4.00;2.00
12246;PMS7003;6186;52.022;4.692;2022-11-15T07:42:27;8.00;7.00;3.00
12246;PMS7003;6186;52.022;4.692;2022-11-15T07:45:14;5.40;5.20;2.40
12246;PMS7003;6186;52.022;4.692;2022-11-15T07:47:39;5.75;5.75;3.00
12246;PMS7003;6186;52.022;4.692;2022-11-15T07:50:04;8.00;5.25;2.75
12246;PMS7003;6186;52.022;4.692;2022-11-15T07:52:30;8.75;8.00;3.00
12246;PMS7003;6186;52.022;4.692;2022-11-15T07:54:55;9.25;8.25;4.50
12246;PMS7003;6186;52.022;4.692;2022-11-15T07:57:20;9.25;9.00;4.00
12246;PMS7003;6186;52.022;4.692;2022-11-15T07:59:46;13.00;11.25;7.00
12246;PMS7003;6186;52.022;4.692;2022-11-15T08:02:11;10.00;9.00;5.00
12246;PMS7003;6186;52.022;4.692;2022-11-15T08:04:36;14.25;13.00;7.00
12246;PMS7003;6186;52.022;4.692;2022-11-15T08:07:02;9.00;9.00;5.25
12246;PMS7003;6186;52.022;4.692;2022-11-15T08:09:27;12.25;9.00;4.25
12246;PMS7003;6186;52.022;4.692;2022-11-15T08:11:52;9.50;9.00;5.25
12246;PMS7003;6186;52.022;4.692;2022-11-15T08:14:18;12.25;10.00;5.25
12246;PMS7003;6186;52.022;4.692;2022-11-15T08:16:43;9.00;8.50;4.00
12246;PMS7003;6186;52.022;4.692;2022-11-15T08:19:08;12.25;10.50;6.25
12246;PMS7003;6186;52.022;4.692;2022-11-15T08:21:34;10.00;9.25;5.00
12246;PMS7003;6186;52.022;4.692;2022-11-15T08:24:00;9.00;9.00;5.20
12246;PMS7003;6186;52.022;4.692;2022-11-15T08:26:25;10.00;9.00;4.00
12246;PMS7003;6186;52.022;4.692;2022-11-15T08:28:54;9.00;8.00;3.00
12246;PMS7003;6186;52.022;4.692;2022-11-15T08:31:19;10.50;9.00;4.00
12246;PMS7003;6186;52.022;4.692;2022-11-15T08:33:44;8.75;8.00;4.00
12246;PMS7003;6186;52.022;4.692;2022-11-15T08:36:14;10.75;10.00;5.00
12246;PMS7003;6186;52.022;4.692;2022-11-15T08:38:41;8.00;7.00;3.80
12246;PMS7003;6186;52.022;4.692;2022-11-15T08:41:09;8.40;7.60;3.00
12246;PMS7003;6186;52.022;4.692;2022-11-15T08:43:55;8.20;8.20;4.00
12246;PMS7003;6186;52.022;4.692;2022-11-15T08:46:21;11.00;8.50;4.25
12246;PMS7003;6186;52.022;4.692;2022-11-15T08:48:46;10.00;9.25;4.00
12246;PMS7003;6186;52.022;4.692;2022-11-15T08:51:11;9.00;7.50;3.75
12246;PMS7003;6186;52.022;4.692;2022-11-15T08:53:37;8.50;7.50;3.00
12246;PMS7003;6186;52.022;4.692;2022-11-15T08:56:02;8.25;7.25;3.25
12246;PMS7003;6186;52.022;4.692;2022-11-15T08:58:33;10.80;9.00;4.00
12246;PMS7003;6186;52.022;4.692;2022-11-15T09:00:58;7.25;7.00;3.00
12246;PMS7003;6186;52.022;4.692;2022-11-15T09:03:24;8.00;7.50;3.00
12246;PMS7003;6186;52.022;4.692;2022-11-15T09:05:53;8.00;6.80;3.00
12246;PMS7003;6186;52.022;4.692;2022-11-15T09:08:22;8.20;8.00;4.00
12246;PMS7003;6186;52.022;4.692;2022-11-15T09:10:48;9.00;8.00;4.00
12246;PMS7003;6186;52.022;4.692;2022-11-15T09:13:13;6.75;6.75;3.00
12246;PMS7003;6186;52.022;4.692;2022-11-15T09:15:39;8.75;8.00;4.00
12246;PMS7003;6186;52.022;4.692;2022-11-15T09:18:04;5.00;5.00;3.00
12246;PMS7003;6186;52.022;4.692;2022-11-15T09:20:29;8.75;7.00;3.00
12246;PMS7003;6186;52.022;4.692;2022-11-15T09:22:58;9.75;9.00;4.00
12246;PMS7003;6186;52.022;4.692;2022-11-15T09:25:24;9.60;8.20;3.00
12246;PMS7003;6186;52.022;4.692;2022-11-15T09:27:49;7.25;7.00;3.00
12246;PMS7003;6186;52.022;4.692;2022-11-15T09:30:15;8.25;8.00;4.00
12246;PMS7003;6186;52.022;4.692;2022-11-15T09:32:40;8.25;8.00;4.00
12246;PMS7003;6186;52.022;4.692;2022-11-15T09:35:06;8.25;6.75;3.00
12246;PMS7003;6186;52.022;4.692;2022-11-15T09:37:31;8.75;5.75;3.25
12246;PMS7003;6186;52.022;4.692;2022-11-15T09:39:57;9.60;8.00;3.60
12246;PMS7003;6186;52.022;4.692;2022-11-15T09:42:25;7.00;7.00;3.00
12246;PMS7003;6186;52.022;4.692;2022-11-15T09:44:59;9.00;6.40;3.20
12246;PMS7003;6186;52.022;4.692;2022-11-15T09:50:12;9.60;7.00;3.60
12246;PMS7003;6186;52.022;4.692;2022-11-15T09:52:41;8.40;7.80;3.20
12246;PMS7003;6186;52.022;4.692;2022-11-15T09:55:10;6.00;5.00;2.20
12246;PMS7003;6186;52.022;4.692;2022-11-15T09:57:46;6.40;5.80;2.00
12246;PMS7003;6186;52.022;4.692;2022-11-15T10:00:20;6.40;6.00;3.20
12246;PMS7003;6186;52.022;4.692;2022-11-15T10:05:25;7.20;5.00;3.00
12246;PMS7003;6186;52.022;4.692;2022-11-15T10:10:55;5.60;5.60;2.80
12246;PMS7003;6186;52.022;4.692;2022-11-15T10:15:46;5.00;5.00;2.20
12246;PMS7003;6186;52.022;4.692;2022-11-15T10:18:14;5.00;4.00;2.00
12246;PMS7003;6186;52.022;4.692;2022-11-15T10:20:47;5.20;4.60;2.00
12246;PMS7003;6186;52.022;4.692;2022-11-15T10:23:32;4.00;4.00;2.00
12246;PMS7003;6186;52.022;4.692;2022-11-15T10:25:58;5.00;4.25;1.75
12246;PMS7003;6186;52.022;4.692;2022-11-15T10:28:31;5.00;5.00;2.40
12246;PMS7003;6186;52.022;4.692;2022-11-15T10:31:00;4.00;4.00;2.00
12246;PMS7003;6186;52.022;4.692;2022-11-15T10:36:20;4.60;4.60;2.00
12246;PMS7003;6186;52.022;4.692;2022-11-15T10:46:43;6.60;5.00;2.40
12246;PMS7003;6186;52.022;4.692;2022-11-15T10:49:29;5.20;4.80;2.00
12246;PMS7003;6186;52.022;4.692;2022-11-15T10:54:29;4.20;4.00;1.20
12246;PMS7003;6186;52.022;4.692;2022-11-15T10:57:05;4.20;4.00;2.00
12246;PMS7003;6186;52.022;4.692;2022-11-15T10:59:36;3.80;3.40;1.20
12246;PMS7003;6186;52.022;4.692;2022-11-15T11:02:20;4.00;3.80;2.00
12246;PMS7003;6186;52.022;4.692;2022-11-15T11:04:54;4.00;4.00;1.00
12246;PMS7003;6186;52.022;4.692;2022-11-15T11:07:20;4.00;4.00;2.00
12246;PMS7003;6186;52.022;4.692;2022-11-15T11:09:57;4.00;4.00;1.40
12246;PMS7003;6186;52.022;4.692;2022-11-15T11:12:28;4.20;3.00;1.20
12246;PMS7003;6186;52.022;4.692;2022-11-15T11:14:56;4.40;3.60;1.00
12246;PMS7003;6186;52.022;4.692;2022-11-15T11:17:29;3.60;3.00;1.80
12246;PMS7003;6186;52.022;4.692;2022-11-15T11:20:00;4.00;4.00;2.00
12246;PMS7003;6186;52.022;4.692;2022-11-15T11:25:26;3.00;3.00;1.00
12246;PMS7003;6186;52.022;4.692;2022-11-15T11:42:50;3.00;3.00;1.00
12246;PMS7003;6186;52.022;4.692;2022-11-15T11:45:26;3.00;3.00;1.00
12246;PMS7003;6186;52.022;4.692;2022-11-15T11:48:03;2.80;2.80;1.00
12246;PMS7003;6186;52.022;4.692;2022-11-15T11:50:46;3.00;3.00;1.00
12246;PMS7003;6186;52.022;4.692;2022-11-15T11:53:13;2.00;2.00;0.60
12246;PMS7003;6186;52.022;4.692;2022-11-15T11:55:47;3.00;2.40;0.00
12246;PMS7003;6186;52.022;4.692;2022-11-15T11:58:37;3.00;2.80;1.00
12246;PMS7003;6186;52.022;4.692;2022-11-15T12:01:18;3.00;3.00;1.00
12246;PMS7003;6186;52.022;4.692;2022-11-15T12:07:01;3.60;3.00;1.00
12246;PMS7003;6186;52.022;4.692;2022-11-15T12:09:38;4.40;4.00;1.00
12246;PMS7003;6186;52.022;4.692;2022-11-15T12:12:12;2.80;2.80;1.00
12246;PMS7003;6186;52.022;4.692;2022-11-15T12:17:30;2.60;2.60;1.00
12246;PMS7003;6186;52.022;4.692;2022-11-15T12:20:00;2.00;2.00;1.00
12246;PMS7003;6186;52.022;4.692;2022-11-15T12:22:43;2.40;2.20;0.00
12246;PMS7003;6186;52.022;4.692;2022-11-15T12:30:25;2.60;2.20;0.60
12246;PMS7003;6186;52.022;4.692;2022-11-15T12:33:01;1.80;1.80;0.00
12246;PMS7003;6186;52.022;4.692;2022-11-15T12:38:00;2.00;2.00;0.00
12246;PMS7003;6186;52.022;4.692;2022-11-15T12:40:28;2.00;2.00;0.00
12246;PMS7003;6186;52.022;4.692;2022-11-15T12:58:46;2.00;2.00;0.20
12246;PMS7003;6186;52.022;4.692;2022-11-15T13:07:05;3.00;2.20;0.20
12246;PMS7003;6186;52.022;4.692;2022-11-15T13:11:57;2.00;2.00;0.00
12246;PMS7003;6186;52.022;4.692;2022-11-15T13:17:02;2.00;2.00;0.00
12246;PMS7003;6186;52.022;4.692;2022-11-15T13:19:37;2.00;2.00;0.00
12246;PMS7003;6186;52.022;4.692;2022-11-15T13:22:04;2.00;2.00;0.75
12246;PMS7003;6186;52.022;4.692;2022-11-15T13:24:52;2.00;2.00;0.40
12246;PMS7003;6186;52.022;4.692;2022-11-15T13:27:18;2.00;2.00;0.00
12246;PMS7003;6186;52.022;4.692;2022-11-15T13:29:44;2.00;2.00;1.00
12246;PMS7003;6186;52.022;4.692;2022-11-15T13:32:13;3.00;2.00;0.00
12246;PMS7003;6186;52.022;4.692;2022-11-15T13:34:44;5.60;5.00;2.00
12246;PMS7003;6186;52.022;4.692;2022-11-15T13:37:45;2.00;2.00;0.00
12246;PMS7003;6186;52.022;4.692;2022-11-15T13:40:10;2.00;2.00;1.00
12246;PMS7003;6186;52.022;4.692;2022-11-15T13:42:44;2.00;2.00;0.00
12246;PMS7003;6186;52.022;4.692;2022-11-15T13:45:12;2.00;2.00;0.75
12246;PMS7003;6186;52.022;4.692;2022-11-15T13:47:40;3.00;2.00;0.00
12246;PMS7003;6186;52.022;4.692;2022-11-15T13:50:05;3.00;2.00;0.00
12246;PMS7003;6186;52.022;4.692;2022-11-15T13:52:33;2.60;1.60;0.00
12246;PMS7003;6186;52.022;4.692;2022-11-15T13:55:09;2.00;2.00;0.20
12246;PMS7003;6186;52.022;4.692;2022-11-15T13:57:53;2.20;2.00;0.20
12246;PMS7003;6186;52.022;4.692;2022-11-15T14:00:41;2.00;2.00;0.00
12246;PMS7003;6186;52.022;4.692;2022-11-15T14:03:18;1.40;1.40;0.00
12246;PMS7003;6186;52.022;4.692;2022-11-15T14:11:26;2.00;2.00;0.00
12246;PMS7003;6186;52.022;4.692;2022-11-15T14:19:05;2.00;2.00;0.80
12246;PMS7003;6186;52.022;4.692;2022-11-15T14:21:34;3.00;3.00;1.00
12246;PMS7003;6186;52.022;4.692;2022-11-15T14:24:16;2.40;2.00;0.00
12246;PMS7003;6186;52.022;4.692;2022-11-15T14:26:44;2.00;2.00;0.60
12246;PMS7003;6186;52.022;4.692;2022-11-15T14:29:25;3.00;2.00;0.00
12246;PMS7003;6186;52.022;4.692;2022-11-15T14:31:52;3.00;2.80;0.80
12246;PMS7003;6186;52.022;4.692;2022-11-15T14:34:18;1.20;1.20;0.00
12246;PMS7003;6186;52.022;4.692;2022-11-15T14:36:46;3.20;2.00;0.20
12246;PMS7003;6186;52.022;4.692;2022-11-15T14:39:11;2.00;2.00;0.00
12246;PMS7003;6186;52.022;4.692;2022-11-15T14:41:37;2.00;2.00;0.00
12246;PMS7003;6186;52.022;4.692;2022-11-15T14:44:06;1.00;1.00;0.00
12246;PMS7003;6186;52.022;4.692;2022-11-15T14:46:35;1.80;1.80;0.00
12246;PMS7003;6186;52.022;4.692;2022-11-15T14:49:00;3.00;2.00;0.00
12246;PMS7003;6186;52.022;4.692;2022-11-15T14:51:26;2.00;2.00;0.00
12246;PMS7003;6186;52.022;4.692;2022-11-15T14:53:51;2.00;2.00;0.00
12246;PMS7003;6186;52.022;4.692;2022-11-15T14:56:17;1.75;1.75;0.00
12246;PMS7003;6186;52.022;4.692;2022-11-15T14:58:42;2.00;2.00;0.00
12246;PMS7003;6186;52.022;4.692;2022-11-15T15:01:16;2.00;2.00;0.00
12246;PMS7003;6186;52.022;4.692;2022-11-15T15:03:45;1.60;1.60;0.00
12246;PMS7003;6186;52.022;4.692;2022-11-15T15:06:10;2.00;2.00;0.00
12246;PMS7003;6186;52.022;4.692;2022-11-15T15:08:37;2.80;2.00;0.20
12246;PMS7003;6186;52.022;4.692;2022-11-15T15:11:04;2.00;2.00;1.00
12246;PMS7003;6186;52.022;4.692;2022-11-15T15:13:38;2.00;2.00;0.00
12246;PMS7003;6186;52.022;4.692;2022-11-15T15:16:03;2.00;2.00;1.00
12246;PMS7003;6186;52.022;4.692;2022-11-15T15:18:29;1.75;1.75;0.00
12246;PMS7003;6186;52.022;4.692;2022-11-15T15:20:55;1.25;1.25;0.00
12246;PMS7003;6186;52.022;4.692;2022-11-15T15:23:24;2.00;2.00;0.60
12246;PMS7003;6186;52.022;4.692;2022-11-15T15:25:53;1.00;1.00;0.00
12246;PMS7003;6186;52.022;4.692;2022-11-15T15:28:19;2.00;2.00;0.00
12246;PMS7003;6186;52.022;4.692;2022-11-15T15:30:45;3.00;2.00;0.75
12246;PMS7003;6186;52.022;4.692;2022-11-15T15:33:10;1.00;1.00;0.00
12246;PMS7003;6186;52.022;4.692;2022-11-15T15:35:35;2.00;2.00;0.00
12246;PMS7003;6186;52.022;4.692;2022-11-15T15:38:01;2.00;2.00;0.00
12246;PMS7003;6186;52.022;4.692;2022-11-15T15:40:29;2.20;2.00;0.00
12246;PMS7003;6186;52.022;4.692;2022-11-15T15:42:55;2.00;2.00;0.00
12246;PMS7003;6186;52.022;4.692;2022-11-15T15:45:21;3.00;2.50;0.50
12246;PMS7003;6186;52.022;4.692;2022-11-15T15:47:46;2.00;2.00;0.00
12246;PMS7003;6186;52.022;4.692;2022-11-15T15:50:16;2.00;2.00;0.00
12246;PMS7003;6186;52.022;4.692;2022-11-15T15:52:47;2.20;2.00;0.00
12246;PMS7003;6186;52.022;4.692;2022-11-15T15:55:12;2.00;2.00;0.00
12246;PMS7003;6186;52.022;4.692;2022-11-15T15:57:38;2.00;2.00;0.25
12246;PMS7003;6186;52.022;4.692;2022-11-15T16:00:04;2.25;2.25;1.00
12246;PMS7003;6186;52.022;4.692;2022-11-15T16:02:30;3.00;3.00;1.00
12246;PMS7003;6186;52.022;4.692;2022-11-15T16:04:55;1.75;1.75;0.00
12246;PMS7003;6186;52.022;4.692;2022-11-15T16:07:21;2.00;2.00;0.25
12246;PMS7003;6186;52.022;4.692;2022-11-15T16:09:48;2.00;2.00;1.00
12246;PMS7003;6186;52.022;4.692;2022-11-15T16:12:30;2.00;2.00;1.00
12246;PMS7003;6186;52.022;4.692;2022-11-15T16:14:57;3.00;3.00;1.00
12246;PMS7003;6186;52.022;4.692;2022-11-15T16:17:24;3.00;3.00;1.00
12246;PMS7003;6186;52.022;4.692;2022-11-15T16:19:53;3.60;3.20;1.00
12246;PMS7003;6186;52.022;4.692;2022-11-15T16:22:18;2.75;2.75;1.00
12246;PMS7003;6186;52.022;4.692;2022-11-15T16:24:44;2.00;2.00;1.00
12246;PMS7003;6186;52.022;4.692;2022-11-15T16:27:16;4.00;3.00;1.00
12246;PMS7003;6186;52.022;4.692;2022-11-15T16:29:44;3.00;2.80;1.00
12246;PMS7003;6186;52.022;4.692;2022-11-15T16:32:10;3.00;3.00;1.00
12246;PMS7003;6186;52.022;4.692;2022-11-15T16:34:36;2.00;2.00;1.00
12246;PMS7003;6186;52.022;4.692;2022-11-15T16:37:02;3.00;3.00;1.00
12246;PMS7003;6186;52.022;4.692;2022-11-15T16:39:28;3.60;3.40;1.00
12246;PMS7003;6186;52.022;4.692;2022-11-15T16:41:57;3.00;3.00;1.00
12246;PMS7003;6186;52.022;4.692;2022-11-15T16:44:23;3.00;3.00;1.40
12246;PMS7003;6186;52.022;4.692;2022-11-15T16:46:49;4.40;3.20;1.00